createdAt,value
2023-03-15T00:01:33.375Z,40.75
2023-03-15T00:04:00.553Z,40.10
2023-03-15T00:06:29.147Z,39.86
2023-03-15T00:08:56.281Z,40.70
2023-03-15T00:11:23.441Z,40.77
2023-03-15T00:13:50.608Z,40.88
2023-03-15T00:16:17.928Z,41.34
2023-03-15T00:18:45.400Z,41.22
2023-03-15T00:21:12.600Z,40.83
2023-03-15T00:23:41.345Z,41.19
2023-03-15T00:26:08.659Z,44.18
2023-03-15T00:28:35.821Z,43.79
2023-03-15T00:31:05.323Z,44.37
2023-03-15T00:33:32.762Z,44.53
2023-03-15T00:35:59.930Z,45.67
2023-03-15T00:38:27.105Z,45.30
2023-03-15T00:40:55.782Z,45.87
2023-03-15T00:43:22.861Z,45.23
2023-03-15T00:45:50.001Z,44.03
2023-03-15T00:48:17.162Z,44.96
2023-03-15T00:50:44.233Z,44.38
2023-03-15T00:53:11.362Z,43.32
2023-03-15T00:55:38.493Z,43.81
2023-03-15T00:58:07.123Z,43.17
2023-03-15T01:00:35.281Z,43.01
2023-03-15T01:03:02.403Z,42.42
2023-03-15T01:05:29.626Z,42.63
2023-03-15T01:07:56.781Z,43.40
2023-03-15T01:10:24.025Z,42.50
2023-03-15T01:12:51.104Z,42.55
2023-03-15T01:15:20.036Z,55.61
2023-03-15T01:17:47.299Z,50.61
2023-03-15T01:20:16.089Z,47.77
2023-03-15T01:22:43.340Z,46.93
2023-03-15T01:25:11.092Z,45.03
2023-03-15T01:27:38.244Z,46.88
2023-03-15T01:30:07.135Z,46.26
2023-03-15T01:32:35.830Z,47.66
2023-03-15T01:35:02.983Z,45.47
2023-03-15T01:37:30.160Z,43.09
2023-03-15T01:39:57.282Z,43.34
2023-03-15T01:42:24.370Z,41.68
2023-03-15T01:44:55.294Z,39.77
2023-03-15T01:47:23.821Z,40.59
2023-03-15T01:49:59.221Z,40.38
2023-03-15T01:52:33.024Z,38.79
2023-03-15T01:55:07.852Z,37.47
2023-03-15T01:57:40.360Z,37.65
2023-03-15T02:00:10.641Z,37.90
2023-03-15T02:02:42.236Z,34.15
2023-03-15T02:05:15.524Z,36.15
2023-03-15T02:07:45.761Z,35.99
2023-03-15T02:10:18.780Z,36.10
2023-03-15T02:12:50.646Z,36.74
2023-03-15T02:15:18.620Z,35.27
2023-03-15T02:17:48.661Z,36.50
2023-03-15T02:20:33.101Z,36.13
2023-03-15T02:23:03.843Z,34.89
2023-03-15T02:25:43.665Z,35.49
2023-03-15T02:28:16.478Z,34.82
2023-03-15T02:30:44.262Z,35.43
2023-03-15T02:33:18.944Z,35.51
2023-03-15T02:35:46.141Z,34.54
2023-03-15T02:38:13.696Z,35.04
2023-03-15T02:40:41.362Z,34.55
2023-03-15T02:43:17.665Z,35.02
2023-03-15T02:45:47.280Z,35.07
2023-03-15T02:48:14.963Z,35.32
2023-03-15T02:50:42.064Z,34.40
2023-03-15T02:53:09.324Z,34.92
2023-03-15T02:55:36.385Z,35.31
2023-03-15T02:58:03.855Z,35.24
2023-03-15T03:00:32.554Z,34.84
2023-03-15T03:02:59.671Z,35.57
2023-03-15T03:05:27.366Z,35.42
2023-03-15T03:07:54.569Z,34.89
2023-03-15T03:10:22.676Z,35.16
2023-03-15T03:12:49.846Z,35.57
2023-03-15T03:15:16.966Z,35.51
2023-03-15T03:17:45.531Z,35.48
2023-03-15T03:20:14.367Z,35.81
2023-03-15T03:22:43.048Z,35.99
2023-03-15T03:25:11.137Z,35.53
2023-03-15T03:27:38.983Z,35.73
2023-03-15T03:30:10.373Z,35.64
2023-03-15T03:32:37.562Z,36.25
2023-03-15T03:35:07.140Z,36.08
2023-03-15T03:37:34.301Z,36.17
2023-03-15T03:40:01.503Z,35.96
2023-03-15T03:42:28.539Z,36.38
2023-03-15T03:44:55.585Z,36.72
2023-03-15T03:47:22.759Z,36.49
2023-03-15T03:49:49.864Z,36.05
2023-03-15T03:52:18.420Z,35.92
2023-03-15T03:54:45.478Z,35.66
2023-03-15T03:57:12.568Z,35.71
2023-03-15T03:59:39.667Z,35.67
2023-03-15T04:02:06.962Z,35.50
2023-03-15T04:04:34.338Z,35.39
2023-03-15T04:07:01.521Z,35.37
2023-03-15T04:09:30.180Z,34.60
2023-03-15T04:11:57.281Z,35.12
2023-03-15T04:14:24.958Z,35.04
2023-03-15T04:16:52.061Z,35.33
2023-03-15T04:19:19.223Z,35.18
2023-03-15T04:21:46.319Z,35.04
2023-03-15T04:24:13.999Z,34.84
2023-03-15T04:26:42.638Z,35.07
2023-03-15T04:29:10.802Z,34.90
2023-03-15T04:31:38.282Z,34.71
2023-03-15T04:34:06.086Z,34.76
2023-03-15T04:36:33.165Z,34.78
2023-03-15T04:39:00.311Z,34.03
2023-03-15T04:41:27.386Z,34.81
2023-03-15T04:43:55.992Z,34.86
2023-03-15T04:46:24.876Z,34.93
2023-03-15T04:48:52.169Z,34.44
2023-03-15T04:51:19.411Z,34.63
2023-03-15T04:53:46.490Z,34.46
2023-03-15T04:56:13.777Z,34.08
2023-03-15T04:58:40.979Z,34.76
2023-03-15T05:01:10.041Z,34.58
2023-03-15T05:03:37.250Z,34.32
2023-03-15T05:06:04.728Z,34.72
2023-03-15T05:08:31.952Z,34.27
2023-03-15T05:10:59.208Z,33.53
2023-03-15T05:13:26.409Z,33.96
2023-03-15T05:15:53.746Z,34.32
2023-03-15T05:18:22.649Z,34.07
2023-03-15T05:20:49.852Z,34.27
2023-03-15T05:23:17.207Z,34.35
2023-03-15T05:25:44.488Z,34.19
2023-03-15T05:28:11.627Z,34.13
2023-03-15T05:30:38.700Z,33.63
2023-03-15T05:33:05.828Z,33.73
2023-03-15T05:35:34.587Z,34.02
2023-03-15T05:38:01.727Z,33.78
2023-03-15T05:40:28.988Z,34.41
2023-03-15T05:42:56.595Z,34.45
2023-03-15T05:45:24.204Z,33.73
2023-03-15T05:47:51.335Z,33.71
2023-03-15T05:50:18.654Z,33.98
2023-03-15T05:52:47.285Z,33.46
2023-03-15T05:55:14.550Z,33.86
2023-03-15T05:57:41.771Z,33.70
2023-03-15T06:00:11.456Z,33.72
2023-03-15T06:02:38.618Z,33.69
2023-03-15T06:05:06.852Z,33.64
2023-03-15T06:07:33.953Z,33.82
2023-03-15T06:10:02.715Z,33.60
2023-03-15T06:12:29.897Z,33.83
2023-03-15T06:14:57.272Z,33.83
2023-03-15T06:17:24.851Z,33.96
2023-03-15T06:19:52.008Z,33.90
2023-03-15T06:22:19.171Z,34.33
2023-03-15T06:24:46.415Z,34.47
2023-03-15T06:27:15.051Z,34.60
2023-03-15T06:29:42.392Z,34.08
2023-03-15T06:32:10.026Z,33.49
2023-03-15T06:34:37.315Z,33.13
2023-03-15T06:37:04.533Z,33.49
2023-03-15T06:39:31.722Z,33.51
2023-03-15T06:41:58.881Z,32.74
2023-03-15T06:44:27.524Z,32.81
2023-03-15T06:46:54.666Z,32.19
2023-03-15T06:49:21.797Z,32.41
2023-03-15T06:51:48.901Z,32.16
2023-03-15T06:54:16.061Z,31.34
2023-03-15T06:56:43.263Z,34.02
2023-03-15T06:59:10.369Z,32.81
2023-03-15T07:01:38.967Z,30.83
2023-03-15T07:04:08.339Z,30.90
2023-03-15T07:06:36.320Z,29.08
2023-03-15T07:09:05.906Z,28.37
2023-03-15T07:11:33.372Z,28.92
2023-03-15T07:14:00.584Z,27.73
2023-03-15T07:16:27.772Z,27.52
2023-03-15T07:18:56.503Z,29.50
2023-03-15T07:21:23.666Z,26.83
2023-03-15T07:23:50.787Z,27.50
2023-03-15T07:26:18.129Z,27.00
2023-03-15T07:28:45.631Z,27.52
2023-03-15T07:31:12.954Z,26.94
2023-03-15T07:33:40.176Z,26.68
2023-03-15T07:36:09.326Z,27.59
2023-03-15T07:38:36.914Z,26.55
2023-03-15T07:41:06.284Z,31.08
2023-03-15T07:43:34.433Z,27.65
2023-03-15T07:46:01.833Z,28.74
2023-03-15T07:48:29.322Z,28.30
2023-03-15T07:50:56.981Z,28.93
2023-03-15T07:53:26.014Z,28.83
2023-03-15T07:55:53.449Z,28.15
2023-03-15T07:58:20.711Z,27.84
2023-03-15T08:00:48.270Z,27.73
2023-03-15T08:03:15.726Z,27.72
2023-03-15T08:05:42.933Z,27.03
2023-03-15T08:08:10.156Z,27.89
2023-03-15T08:10:38.878Z,26.51
2023-03-15T08:13:06.229Z,28.35
2023-03-15T08:15:33.534Z,26.80
2023-03-15T08:18:00.896Z,28.52
2023-03-15T08:20:29.822Z,27.76
2023-03-15T08:22:57.534Z,28.34
2023-03-15T08:25:26.120Z,27.74
2023-03-15T08:27:54.751Z,27.23
2023-03-15T08:30:22.471Z,26.53
2023-03-15T08:32:51.029Z,28.14
2023-03-15T08:35:20.349Z,27.06
2023-03-15T08:37:48.095Z,28.11
2023-03-15T08:40:17.230Z,27.00
2023-03-15T08:42:44.471Z,27.51
2023-03-15T08:45:13.097Z,27.28
2023-03-15T08:47:40.413Z,27.99
2023-03-15T08:50:11.615Z,27.47
2023-03-15T08:52:39.409Z,26.94
2023-03-15T08:55:07.942Z,25.76
2023-03-15T08:57:35.394Z,26.23
2023-03-15T09:00:05.024Z,27.24
2023-03-15T09:02:34.732Z,27.43
2023-03-15T09:05:02.079Z,24.88
2023-03-15T09:07:29.337Z,26.65
2023-03-15T09:09:56.490Z,26.03
2023-03-15T09:12:23.625Z,26.63
2023-03-15T09:14:50.898Z,25.58
2023-03-15T09:17:18.084Z,27.54
2023-03-15T09:19:46.690Z,25.39
2023-03-15T09:22:17.141Z,26.34
2023-03-15T09:24:51.734Z,26.15
2023-03-15T09:27:19.327Z,26.58
2023-03-15T09:29:46.575Z,24.98
2023-03-15T09:32:14.006Z,26.70
2023-03-15T09:34:42.254Z,25.03
2023-03-15T09:37:11.249Z,24.60
2023-03-15T09:39:38.392Z,26.23
2023-03-15T09:42:17.267Z,27.30
2023-03-15T09:44:47.967Z,26.66
2023-03-15T09:47:32.488Z,27.04
2023-03-15T09:50:07.819Z,26.36
2023-03-15T09:52:43.318Z,26.46
2023-03-15T09:55:17.429Z,25.07
2023-03-15T09:57:50.801Z,25.38
2023-03-15T10:00:24.013Z,25.29
2023-03-15T10:03:00.170Z,26.47
2023-03-15T10:05:37.871Z,23.59
2023-03-15T10:08:11.912Z,26.06
2023-03-15T10:10:49.631Z,27.66
2023-03-15T10:13:33.147Z,27.13
2023-03-15T10:16:23.045Z,27.11
2023-03-15T10:19:05.512Z,26.38
2023-03-15T10:21:48.296Z,24.88
2023-03-15T10:24:23.136Z,26.99
2023-03-15T10:26:53.798Z,26.14
2023-03-15T10:29:24.613Z,25.21
2023-03-15T10:31:55.134Z,26.01
2023-03-15T10:34:24.238Z,25.55
2023-03-15T10:36:52.127Z,26.72
2023-03-15T10:39:22.412Z,25.77
2023-03-15T10:41:51.389Z,25.80
2023-03-15T10:44:21.695Z,26.23
2023-03-15T10:47:06.986Z,26.63
2023-03-15T10:49:38.645Z,25.42
2023-03-15T10:52:06.167Z,27.17
2023-03-15T10:54:36.129Z,23.89
2023-03-15T10:57:06.789Z,25.42
2023-03-15T10:59:36.112Z,25.31
2023-03-15T11:02:22.605Z,25.04
2023-03-15T11:04:59.845Z,23.57
2023-03-15T11:07:27.031Z,23.88
2023-03-15T11:10:01.082Z,26.51
2023-03-15T11:12:29.926Z,24.42
2023-03-15T11:15:00.749Z,26.67
2023-03-15T11:17:30.857Z,25.04
2023-03-15T11:20:00.989Z,25.73
2023-03-15T11:22:28.190Z,26.90
2023-03-15T11:24:57.252Z,26.00
2023-03-15T11:27:26.888Z,26.53
2023-03-15T11:29:57.864Z,26.07
2023-03-15T11:32:29.027Z,25.64
2023-03-15T11:35:02.606Z,25.59
2023-03-15T11:37:38.391Z,25.35
2023-03-15T11:40:18.163Z,25.04
2023-03-15T11:42:54.830Z,25.47
2023-03-15T11:45:34.401Z,24.76
2023-03-15T11:48:11.450Z,24.49
2023-03-15T11:50:40.238Z,21.46
2023-03-15T11:53:11.293Z,25.37
2023-03-15T11:55:40.093Z,24.60
2023-03-15T11:58:29.536Z,25.53
2023-03-15T12:01:01.872Z,25.74
2023-03-15T12:03:33.890Z,22.11
2023-03-15T12:06:11.341Z,23.14
2023-03-15T12:08:45.732Z,25.03
2023-03-15T12:11:40.086Z,24.78
2023-03-15T12:14:26.014Z,24.83
2023-03-15T12:17:46.160Z,26.83
2023-03-15T12:20:20.727Z,26.44
2023-03-15T12:22:53.289Z,23.51
2023-03-15T12:25:29.567Z,25.07
2023-03-15T12:27:59.888Z,23.29
2023-03-15T12:30:34.025Z,25.62
2023-03-15T12:33:03.611Z,23.51
2023-03-15T12:35:39.955Z,25.57
2023-03-15T12:38:16.226Z,24.82
2023-03-15T12:40:53.323Z,25.94
2023-03-15T12:43:40.188Z,25.16
2023-03-15T12:46:08.285Z,20.03
2023-03-15T12:48:35.541Z,24.79
2023-03-15T12:51:06.164Z,22.21
2023-03-15T12:53:54.182Z,22.26
2023-03-15T12:56:56.182Z,22.88
2023-03-15T12:59:32.644Z,24.65
2023-03-15T13:02:02.791Z,23.66
2023-03-15T13:04:31.661Z,24.68
2023-03-15T13:07:18.114Z,24.46
2023-03-15T13:10:21.952Z,22.98
2023-03-15T13:12:57.663Z,21.89
2023-03-15T13:15:34.686Z,21.06
2023-03-15T13:18:15.114Z,18.88
2023-03-15T13:20:48.567Z,22.53
2023-03-15T13:23:27.103Z,18.31
2023-03-15T13:26:13.941Z,21.06
2023-03-15T13:28:48.564Z,22.74
2023-03-15T13:31:23.812Z,23.29
2023-03-15T13:33:53.707Z,20.76
2023-03-15T13:36:20.864Z,23.01
2023-03-15T13:38:50.532Z,23.25
2023-03-15T13:41:22.000Z,23.27
2023-03-15T13:43:51.125Z,21.97
2023-03-15T13:46:22.675Z,20.63
2023-03-15T13:48:51.584Z,18.28
2023-03-15T13:51:22.780Z,21.96
2023-03-15T13:53:52.845Z,18.61
2023-03-15T13:56:32.640Z,19.30
2023-03-15T13:59:06.685Z,22.71
2023-03-15T14:01:40.411Z,19.80
2023-03-15T14:04:14.691Z,18.57
2023-03-15T14:06:42.696Z,17.38
2023-03-15T14:09:16.946Z,17.83
2023-03-15T14:11:44.245Z,17.37
2023-03-15T14:14:22.843Z,18.69
2023-03-15T14:17:04.757Z,17.50
2023-03-15T14:19:35.574Z,17.01
2023-03-15T14:22:13.004Z,17.81
2023-03-15T14:24:43.482Z,18.48
2023-03-15T14:27:17.974Z,18.79
2023-03-15T14:29:50.323Z,19.30
2023-03-15T14:32:29.443Z,18.07
2023-03-15T14:35:05.970Z,19.02
2023-03-15T14:37:38.637Z,18.48
2023-03-15T14:40:18.562Z,18.52
2023-03-15T14:42:45.921Z,19.43
2023-03-15T14:45:13.867Z,18.17
2023-03-15T14:47:56.062Z,17.84
2023-03-15T14:50:26.488Z,19.30
2023-03-15T14:52:54.540Z,18.73
2023-03-15T14:55:25.037Z,18.62
2023-03-15T14:57:52.147Z,17.04
2023-03-15T15:00:20.680Z,15.99
2023-03-15T15:02:54.141Z,17.16
2023-03-15T15:05:25.748Z,17.76
2023-03-15T15:08:01.889Z,17.39
2023-03-15T15:10:30.575Z,16.53
2023-03-15T15:13:06.098Z,17.43
2023-03-15T15:15:47.412Z,18.44
2023-03-15T15:18:23.574Z,18.49
2023-03-15T15:20:51.114Z,18.61
2023-03-15T15:23:21.348Z,19.12
2023-03-15T15:25:51.894Z,18.33
2023-03-15T15:28:33.347Z,17.95
2023-03-15T15:31:02.435Z,17.75
2023-03-15T15:33:31.208Z,16.37
2023-03-15T15:35:58.915Z,15.58
2023-03-15T15:38:31.406Z,16.29
2023-03-15T15:40:58.568Z,15.97
2023-03-15T15:43:25.808Z,16.08
2023-03-15T15:45:52.936Z,14.71
2023-03-15T15:48:20.234Z,14.08
2023-03-15T15:50:49.048Z,14.30
2023-03-15T15:53:18.428Z,13.83
2023-03-15T15:55:46.199Z,15.00
2023-03-15T15:58:14.577Z,15.33
2023-03-15T16:00:41.724Z,15.32
2023-03-15T16:03:13.649Z,14.96
2023-03-15T16:05:41.653Z,15.07
2023-03-15T16:08:21.621Z,15.38
2023-03-15T16:10:49.182Z,15.71
2023-03-15T16:13:16.889Z,15.27
2023-03-15T16:15:44.148Z,15.43
2023-03-15T16:18:12.728Z,15.89
2023-03-15T16:20:41.804Z,16.91
2023-03-15T16:23:19.064Z,14.50
2023-03-15T16:25:50.241Z,15.06
2023-03-15T16:28:17.728Z,15.17
2023-03-15T16:30:46.891Z,13.89
2023-03-15T16:33:19.225Z,14.05
2023-03-15T16:35:48.096Z,14.12
2023-03-15T16:38:19.333Z,14.44
2023-03-15T16:40:46.731Z,14.00
2023-03-15T16:43:14.877Z,14.70
2023-03-15T16:45:42.262Z,14.50
2023-03-15T16:48:09.763Z,16.28
2023-03-15T16:50:37.128Z,15.67
2023-03-15T16:53:09.365Z,15.64
2023-03-15T16:55:38.843Z,16.21
2023-03-15T16:58:17.382Z,16.02
2023-03-15T17:00:44.883Z,15.39
2023-03-15T17:03:12.230Z,16.20
2023-03-15T17:05:41.634Z,15.70
2023-03-15T17:08:13.844Z,14.43
2023-03-15T17:10:43.284Z,15.28
2023-03-15T17:13:14.730Z,14.93
2023-03-15T17:15:42.425Z,14.96
2023-03-15T17:18:17.237Z,16.07
2023-03-15T17:20:45.229Z,16.74
2023-03-15T17:23:12.411Z,16.34
2023-03-15T17:25:40.249Z,15.92
2023-03-15T17:28:09.031Z,16.11
2023-03-15T17:30:37.872Z,15.38
2023-03-15T17:33:07.106Z,15.45
2023-03-15T17:35:37.706Z,15.78
2023-03-15T17:38:13.097Z,16.71
2023-03-15T17:40:40.877Z,18.56
2023-03-15T17:43:14.909Z,16.72
2023-03-15T17:45:43.365Z,16.79
2023-03-15T17:48:10.956Z,16.79
2023-03-15T17:50:38.585Z,16.66
2023-03-15T17:53:11.722Z,16.50
2023-03-15T17:55:39.107Z,19.29
2023-03-15T17:58:16.495Z,20.79
2023-03-15T18:00:43.912Z,21.35
2023-03-15T18:03:15.150Z,22.21
2023-03-15T18:05:42.465Z,22.27
2023-03-15T18:08:11.631Z,22.39
2023-03-15T18:10:41.839Z,22.62
2023-03-15T18:13:15.246Z,22.86
2023-03-15T18:15:42.553Z,23.04
2023-03-15T18:18:10.155Z,23.21
2023-03-15T18:20:37.887Z,23.43
2023-03-15T18:23:05.428Z,23.38
2023-03-15T18:25:34.877Z,23.90
2023-03-15T18:28:02.447Z,23.72
2023-03-15T18:30:31.626Z,24.39
2023-03-15T18:32:58.931Z,23.75
2023-03-15T18:35:29.763Z,24.17
2023-03-15T18:37:58.002Z,24.11
2023-03-15T18:40:27.759Z,24.22
2023-03-15T18:42:55.784Z,23.99
2023-03-15T18:45:26.183Z,24.04
2023-03-15T18:47:54.958Z,24.20
2023-03-15T18:50:22.622Z,23.84
2023-03-15T18:52:50.145Z,24.03
2023-03-15T18:55:19.708Z,23.93
2023-03-15T18:57:46.892Z,24.03
2023-03-15T19:00:18.163Z,24.07
2023-03-15T19:02:46.945Z,24.31
2023-03-15T19:05:17.222Z,24.27
2023-03-15T19:07:47.269Z,24.48
2023-03-15T19:10:18.197Z,23.87
2023-03-15T19:12:46.732Z,24.44
2023-03-15T19:15:16.188Z,24.36
2023-03-15T19:17:43.964Z,23.94
2023-03-15T19:20:14.309Z,24.50
2023-03-15T19:22:43.421Z,24.68
2023-03-15T19:25:11.844Z,24.59
2023-03-15T19:27:39.084Z,24.68
2023-03-15T19:30:09.136Z,24.55
2023-03-15T19:32:36.621Z,24.46
2023-03-15T19:35:04.665Z,24.68
2023-03-15T19:37:31.771Z,24.38
2023-03-15T19:40:00.425Z,25.26
2023-03-15T19:42:27.788Z,24.70
2023-03-15T19:44:54.965Z,25.14
2023-03-15T19:47:22.174Z,25.33
2023-03-15T19:49:49.470Z,25.11
2023-03-15T19:52:16.678Z,24.39
2023-03-15T19:54:43.812Z,24.26
2023-03-15T19:57:12.985Z,24.63
2023-03-15T19:59:40.267Z,24.93
2023-03-15T20:02:08.087Z,24.92
2023-03-15T20:04:35.983Z,24.52
2023-03-15T20:07:03.581Z,24.91
2023-03-15T20:09:30.920Z,24.51
2023-03-15T20:11:58.245Z,25.45
2023-03-15T20:14:27.045Z,24.47
2023-03-15T20:16:55.046Z,25.28
2023-03-15T20:19:31.749Z,25.12
2023-03-15T20:22:00.013Z,25.13
2023-03-15T20:24:27.807Z,25.80
2023-03-15T20:26:55.948Z,25.78
2023-03-15T20:29:23.524Z,25.41
2023-03-15T20:31:53.051Z,26.04
2023-03-15T20:34:21.548Z,25.81
2023-03-15T20:36:49.734Z,25.58
2023-03-15T20:39:17.189Z,25.93
2023-03-15T20:41:44.816Z,26.26
2023-03-15T20:44:13.449Z,26.10
2023-03-15T20:46:41.725Z,26.16
2023-03-15T20:49:10.987Z,26.54
2023-03-15T20:51:39.049Z,26.55
2023-03-15T20:54:07.348Z,26.79
2023-03-15T20:56:34.755Z,27.05
2023-03-15T20:59:02.186Z,26.40
2023-03-15T21:01:29.498Z,26.77
2023-03-15T21:03:56.785Z,27.06
2023-03-15T21:06:26.108Z,26.67
2023-03-15T21:08:54.802Z,47.71
2023-03-15T21:11:22.325Z,31.47
2023-03-15T21:13:50.325Z,27.24
2023-03-15T21:16:17.729Z,24.98
2023-03-15T21:18:46.143Z,20.93
2023-03-15T21:21:14.965Z,21.18
2023-03-15T21:23:44.764Z,21.89
2023-03-15T21:26:14.701Z,22.79
2023-03-15T21:28:43.514Z,23.21
2023-03-15T21:31:11.667Z,23.39
2023-03-15T21:33:39.596Z,24.23
2023-03-15T21:36:07.766Z,24.67
2023-03-15T21:38:35.370Z,25.44
2023-03-15T21:41:09.880Z,25.38
2023-03-15T21:43:38.697Z,25.62
2023-03-15T21:46:08.537Z,25.69
2023-03-15T21:48:37.087Z,26.38
2023-03-15T21:51:06.076Z,26.20
2023-03-15T21:53:34.327Z,26.64
2023-03-15T21:56:03.350Z,26.11
2023-03-15T21:58:32.674Z,26.80
2023-03-15T22:01:01.967Z,26.82
2023-03-15T22:03:29.442Z,26.11
2023-03-15T22:05:57.320Z,26.17
2023-03-15T22:08:25.435Z,25.49
2023-03-15T22:10:54.314Z,26.18
2023-03-15T22:13:22.140Z,26.20
2023-03-15T22:15:51.197Z,25.55
2023-03-15T22:18:19.303Z,26.11
2023-03-15T22:20:47.570Z,25.78
2023-03-15T22:23:14.876Z,25.77
2023-03-15T22:25:42.143Z,25.76
2023-03-15T22:28:09.387Z,25.36
2023-03-15T22:30:36.572Z,26.02
2023-03-15T22:33:05.477Z,25.27
2023-03-15T22:35:32.812Z,25.25
2023-03-15T22:38:00.537Z,25.04
2023-03-15T22:40:28.657Z,24.69
2023-03-15T22:42:55.858Z,25.68
2023-03-15T22:45:23.038Z,25.83
2023-03-15T22:47:50.281Z,26.49
2023-03-15T22:50:19.199Z,26.64
2023-03-15T22:52:46.368Z,26.81
2023-03-15T22:55:14.640Z,27.60
2023-03-15T22:57:41.923Z,28.87
2023-03-15T23:00:13.139Z,28.11
2023-03-15T23:02:41.121Z,28.17
2023-03-15T23:05:09.803Z,28.59
2023-03-15T23:07:39.144Z,28.81
2023-03-15T23:10:08.327Z,29.90
2023-03-15T23:12:36.802Z,30.60
2023-03-15T23:15:04.882Z,31.49
2023-03-15T23:17:32.185Z,30.31
2023-03-15T23:19:59.368Z,30.59
2023-03-15T23:22:26.491Z,31.26
2023-03-15T23:24:55.106Z,31.62
2023-03-15T23:27:22.224Z,31.13
2023-03-15T23:29:54.430Z,31.80
2023-03-15T23:32:23.508Z,31.27
2023-03-15T23:34:51.481Z,31.62
2023-03-15T23:37:18.587Z,31.67
2023-03-15T23:39:46.122Z,31.42
2023-03-15T23:42:14.998Z,31.59
2023-03-15T23:44:42.150Z,31.44
2023-03-15T23:47:09.672Z,32.20
2023-03-15T23:49:36.966Z,32.61
2023-03-15T23:52:04.348Z,32.84
2023-03-15T23:54:31.974Z,32.85
2023-03-15T23:56:59.107Z,32.94
2023-03-15T23:59:27.744Z,32.74
